createdAt,value
2023-03-11T00:05:15.314Z,0.5
2023-03-11T00:20:38.634Z,0.5
2023-03-11T00:36:01.935Z,0.6
2023-03-11T00:51:25.237Z,0.9
2023-03-11T01:06:48.545Z,0.8
2023-03-11T01:22:11.867Z,0.8
2023-03-11T01:37:35.172Z,0.7
2023-03-11T01:52:58.475Z,0.9
2023-03-11T02:08:21.792Z,1
2023-03-11T02:23:44.124Z,1.3
2023-03-11T02:39:07.426Z,1.4
2023-03-11T02:54:30.730Z,1.4
2023-03-11T03:09:54.032Z,1.2
2023-03-11T03:25:17.346Z,1.4
2023-03-11T03:40:40.656Z,2.5
2023-03-11T03:56:03.000Z,2.2
2023-03-11T04:11:26.300Z,2.4
2023-03-11T04:26:48.632Z,2.6
2023-03-11T04:42:10.966Z,4.1
2023-03-11T04:57:33.278Z,2.6
2023-03-11T05:12:56.548Z,2
2023-03-11T05:28:19.809Z,3.2
2023-03-11T05:43:43.080Z,3.5
2023-03-11T05:59:06.342Z,3.7
2023-03-11T06:14:29.603Z,4
2023-03-11T06:29:52.876Z,2.6
2023-03-11T06:45:16.152Z,1.7
2023-03-11T07:00:39.414Z,1.6
2023-03-11T07:16:02.679Z,4.8
2023-03-11T07:31:25.931Z,2.7
2023-03-11T07:46:49.207Z,2.2
2023-03-11T08:02:12.469Z,2.6
2023-03-11T08:17:34.749Z,2.5
2023-03-11T08:32:58.018Z,2.4
2023-03-11T08:48:21.287Z,4.1
2023-03-11T09:03:44.552Z,1.7
2023-03-11T09:19:07.804Z,1.8
2023-03-11T09:34:31.074Z,2.6
2023-03-11T09:49:54.348Z,2
2023-03-11T10:05:16.628Z,3.3
2023-03-11T10:20:38.918Z,2.9
2023-03-11T10:36:01.197Z,3.4
2023-03-11T10:51:23.471Z,2.9
2023-03-11T11:06:46.743Z,2.2
2023-03-11T11:22:10.020Z,3
2023-03-11T11:37:33.278Z,3.5
2023-03-11T11:52:56.545Z,3
2023-03-11T11:54:19.952Z,3.9
2023-03-11T11:55:43.362Z,4.7
2023-03-11T11:57:06.769Z,5.4
2023-03-11T11:58:30.175Z,5.4
2023-03-11T11:59:53.598Z,5.1
2023-03-11T12:01:16.992Z,4.8
2023-03-11T12:02:40.394Z,4.6
2023-03-11T12:04:03.811Z,4.4
2023-03-11T12:05:26.229Z,5.1
2023-03-11T12:06:49.645Z,4.1
2023-03-11T12:08:13.048Z,4
2023-03-11T12:09:36.453Z,4.5
2023-03-11T12:10:59.862Z,4
2023-03-11T12:12:23.277Z,4.4
2023-03-11T12:13:46.676Z,4
2023-03-11T12:15:09.120Z,4
2023-03-11T12:16:31.545Z,3.7
2023-03-11T12:17:54.956Z,4.5
2023-03-11T12:19:18.359Z,3.7
2023-03-11T12:20:41.772Z,3.9
2023-03-11T12:22:05.177Z,3.7
2023-03-11T12:23:28.000Z,3.5
2023-03-11T12:24:52.001Z,3.7
2023-03-11T12:26:15.401Z,3.7
2023-03-11T12:27:38.822Z,3.5
2023-03-11T12:29:02.232Z,3.9
2023-03-11T12:30:25.638Z,4.7
2023-03-11T12:31:49.057Z,4.4
2023-03-11T12:33:12.470Z,4.1
2023-03-11T12:34:34.897Z,3.7
2023-03-11T12:35:58.301Z,3.5
2023-03-11T12:37:21.704Z,3.3
2023-03-11T12:38:45.107Z,3.4
2023-03-11T12:40:08.519Z,3.6
2023-03-11T12:41:31.941Z,3.4
2023-03-11T12:44:18.000Z,3.3
2023-03-11T12:45:41.179Z,3
2023-03-11T12:47:03.615Z,3.1
2023-03-11T12:48:27.016Z,2.9
2023-03-11T12:49:50.443Z,2.8
2023-03-11T12:52:37.254Z,2.7
2023-03-11T12:54:00.676Z,2.8
2023-03-11T12:55:24.081Z,2.8
2023-03-11T12:56:47.480Z,3.2
2023-03-11T12:58:10.897Z,3
2023-03-11T12:59:34.295Z,3.2
2023-03-11T13:00:57.707Z,3.5
2023-03-11T13:02:21.124Z,3.5
2023-03-11T13:03:44.534Z,3.5
2023-03-11T13:05:06.953Z,3.5
2023-03-11T13:06:30.361Z,3.8
2023-03-11T13:07:53.760Z,3.4
2023-03-11T13:09:17.168Z,3.3
2023-03-11T13:10:40.000Z,3.2
2023-03-11T13:12:03.990Z,3.4
2023-03-11T13:13:27.408Z,3.3
2023-03-11T13:14:50.818Z,3.8
2023-03-11T13:16:13.253Z,3.4
2023-03-11T13:17:35.675Z,3.7
2023-03-11T13:18:58.108Z,3.2
2023-03-11T13:20:20.521Z,3.3
2023-03-11T13:21:43.940Z,3.9
2023-03-11T13:23:07.349Z,3.6
2023-03-11T13:24:30.759Z,3.4
2023-03-11T13:25:54.169Z,3.8
2023-03-11T13:27:17.566Z,3.8
2023-03-11T13:28:40.979Z,3.5
2023-03-11T13:30:04.395Z,3.3
2023-03-11T13:31:27.809Z,3.8
2023-03-11T13:32:51.213Z,3.1
2023-03-11T13:34:14.621Z,4.2
2023-03-11T13:35:38.040Z,4.2
2023-03-11T13:37:01.438Z,3.6
2023-03-11T13:38:23.870Z,3.6
2023-03-11T13:39:47.271Z,3.4
2023-03-11T13:41:10.692Z,3.6
2023-03-11T13:42:34.111Z,3.7
2023-03-11T13:43:57.513Z,4
2023-03-11T13:45:20.915Z,4.5
2023-03-11T13:46:44.332Z,4.6
2023-03-11T13:48:06.763Z,6.4
2023-03-11T13:49:29.181Z,5.3
2023-03-11T13:50:52.605Z,5.6
2023-03-11T13:52:15.998Z,4.7
2023-03-11T13:53:39.422Z,5
2023-03-11T13:55:02.825Z,6.1
2023-03-11T13:56:26.243Z,6.3
2023-03-11T13:57:49.640Z,4.5
2023-03-11T13:59:13.050Z,4.5
2023-03-11T14:00:36.467Z,5.4
2023-03-11T14:01:59.874Z,6.3
2023-03-11T14:03:23.279Z,5.8
2023-03-11T14:04:46.693Z,4.8
2023-03-11T14:06:10.112Z,4.3
2023-03-11T14:07:32.523Z,3.9
2023-03-11T14:08:55.930Z,4.1
2023-03-11T14:10:19.358Z,3.4
2023-03-11T14:11:42.763Z,3.6
2023-03-11T14:13:06.174Z,3.3
2023-03-11T14:14:29.574Z,3.3
2023-03-11T14:15:52.985Z,3.2
2023-03-11T14:17:16.399Z,3.5
2023-03-11T14:18:39.804Z,3.1
2023-03-11T14:20:03.216Z,3.2
2023-03-11T14:21:26.618Z,3.2
2023-03-11T14:22:50.018Z,3.7
2023-03-11T14:24:13.435Z,3.3
2023-03-11T14:25:35.862Z,3.1
2023-03-11T14:26:59.270Z,3
2023-03-11T14:28:22.692Z,3
2023-03-11T14:29:46.000Z,3.3
2023-03-11T14:31:09.500Z,3
2023-03-11T14:32:32.914Z,2.7
2023-03-11T14:33:56.338Z,3.1
2023-03-11T14:35:19.734Z,3.2
2023-03-11T14:36:43.157Z,3.1
2023-03-11T14:38:06.560Z,2.8
2023-03-11T14:39:29.982Z,2.8
2023-03-11T14:40:53.387Z,2.7
2023-03-11T14:42:16.783Z,2.8
2023-03-11T14:43:39.208Z,2.9
2023-03-11T14:45:02.595Z,2.9
2023-03-11T14:46:26.013Z,2.4
2023-03-11T14:47:49.417Z,2.6
2023-03-11T14:49:12.836Z,3
2023-03-11T14:50:36.241Z,3
2023-03-11T14:51:59.647Z,3
2023-03-11T14:53:23.056Z,2.3
2023-03-11T14:54:46.458Z,2.3
2023-03-11T14:56:09.883Z,2.5
2023-03-11T14:57:33.282Z,2.6
2023-03-11T14:58:56.697Z,2.8
2023-03-11T15:00:20.102Z,2.6
2023-03-11T15:01:42.520Z,2.5
2023-03-11T15:03:05.942Z,2.7
2023-03-11T15:04:29.337Z,2.7
2023-03-11T15:05:52.748Z,2.6
2023-03-11T15:07:16.170Z,2.5
2023-03-11T15:08:39.571Z,2.8
2023-03-11T15:10:02.984Z,2.2
2023-03-11T15:11:26.388Z,1.9
2023-03-11T15:12:49.795Z,2.2
2023-03-11T15:14:13.201Z,2.4
2023-03-11T15:15:35.632Z,4.3
2023-03-11T15:16:59.028Z,3.4
2023-03-11T15:18:22.440Z,3.5
2023-03-11T15:19:45.847Z,3
2023-03-11T15:21:09.261Z,2.8
2023-03-11T15:22:32.668Z,2.4
2023-03-11T15:23:56.089Z,2.7
2023-03-11T15:25:19.491Z,2
2023-03-11T15:26:42.902Z,2
2023-03-11T15:28:06.301Z,2.1
2023-03-11T15:29:29.729Z,1.9
2023-03-11T15:30:53.133Z,2
2023-03-11T15:32:16.552Z,2.2
2023-03-11T15:33:38.960Z,2.3
2023-03-11T15:35:02.370Z,2.7
2023-03-11T15:36:25.784Z,1.5
2023-03-11T15:37:49.203Z,1.3
2023-03-11T15:39:12.600Z,1.8
2023-03-11T15:40:36.021Z,2.5
2023-03-11T15:41:59.429Z,3
2023-03-11T15:43:22.838Z,2.6
2023-03-11T15:44:46.241Z,2.2
2023-03-11T15:46:09.653Z,1.4
2023-03-11T15:47:33.061Z,1.9
2023-03-11T15:48:56.473Z,2.2
2023-03-11T15:50:19.889Z,2.1
2023-03-11T15:51:42.304Z,1.7
2023-03-11T15:53:05.726Z,1.3
2023-03-11T15:54:29.129Z,1.5
2023-03-11T15:55:52.526Z,1.5
2023-03-11T15:57:15.954Z,1.7
2023-03-11T15:58:39.344Z,1.4
2023-03-11T16:00:02.762Z,1.5
2023-03-11T16:01:26.170Z,1.3
2023-03-11T16:02:49.581Z,1.4
2023-03-11T16:04:12.980Z,1.5
2023-03-11T16:05:36.404Z,2
2023-03-11T16:06:59.803Z,4
2023-03-11T16:08:23.224Z,4
2023-03-11T16:09:45.644Z,4.8
2023-03-11T16:11:09.054Z,4.7
2023-03-11T16:12:32.464Z,10.6
2023-03-11T16:13:55.873Z,7.2
2023-03-11T16:15:19.273Z,4.5
2023-03-11T16:16:42.681Z,3.8
2023-03-11T16:18:06.085Z,2.4
2023-03-11T16:19:29.502Z,1.6
2023-03-11T16:20:52.918Z,1.5
2023-03-11T16:22:16.327Z,1.3
2023-03-11T16:23:39.733Z,1.8
2023-03-11T16:25:03.147Z,2.1
2023-03-11T16:26:26.537Z,1.6
2023-03-11T16:27:48.981Z,1.9
2023-03-11T16:29:12.376Z,1.6
2023-03-11T16:30:35.777Z,1.7
2023-03-11T16:31:59.193Z,1.8
2023-03-11T16:33:22.615Z,1.5
2023-03-11T16:34:46.028Z,1.6
2023-03-11T16:36:09.437Z,2.9
2023-03-11T16:37:32.846Z,4.7
2023-03-11T16:38:56.239Z,5.9
2023-03-11T16:40:19.657Z,8
2023-03-11T16:41:43.059Z,6.4
2023-03-11T16:43:06.473Z,5.7
2023-03-11T16:44:29.891Z,5.6
2023-03-11T16:45:52.308Z,8.2
2023-03-11T16:47:15.710Z,6.5
2023-03-11T16:48:39.132Z,4.1
2023-03-11T16:50:02.527Z,1.8
2023-03-11T16:51:25.950Z,1.9
2023-03-11T16:52:49.361Z,1.8
2023-03-11T16:54:12.757Z,1.7
2023-03-11T16:55:36.170Z,1.7
2023-03-11T16:56:59.566Z,1.8
2023-03-11T16:58:22.981Z,1.8
2023-03-11T16:59:46.392Z,1.6
2023-03-11T17:01:09.798Z,1.8
2023-03-11T17:02:33.202Z,1.5
2023-03-11T17:03:55.625Z,1.8
2023-03-11T17:05:19.047Z,1.4
2023-03-11T17:06:42.445Z,1.6
2023-03-11T17:08:05.848Z,1.5
2023-03-11T17:09:29.257Z,1.7
2023-03-11T17:10:52.670Z,1.5
2023-03-11T17:12:16.071Z,1.8
2023-03-11T17:13:39.489Z,1.8
2023-03-11T17:15:02.893Z,1.7
2023-03-11T17:16:26.293Z,1.5
2023-03-11T17:17:49.702Z,2.3
2023-03-11T17:19:13.116Z,7.4
2023-03-11T17:20:36.512Z,11.1
2023-03-11T17:21:58.932Z,13.9
2023-03-11T17:23:22.348Z,8.1
2023-03-11T17:24:45.758Z,12
2023-03-11T17:26:09.177Z,10.3
2023-03-11T17:27:32.580Z,3.5
2023-03-11T17:28:55.985Z,4.1
2023-03-11T17:30:19.388Z,4.5
2023-03-11T17:31:42.806Z,2.9
2023-03-11T17:33:06.212Z,2.8
2023-03-11T17:34:29.661Z,2.7
2023-03-11T17:35:53.061Z,2.2
2023-03-11T17:37:16.480Z,2.1
2023-03-11T17:38:39.887Z,1.8
2023-03-11T17:40:02.348Z,2
2023-03-11T17:41:25.789Z,2.8
2023-03-11T17:42:49.257Z,3
2023-03-11T17:44:12.700Z,4.4
2023-03-11T17:45:36.148Z,4.2
2023-03-11T17:46:59.597Z,4.1
2023-03-11T17:48:23.047Z,4.7
2023-03-11T17:49:46.491Z,11.8
2023-03-11T17:51:09.956Z,8
2023-03-11T17:52:33.401Z,11.5
2023-03-11T17:53:56.869Z,12.9
2023-03-11T17:55:20.315Z,7.9
2023-03-11T17:56:43.750Z,9.7
2023-03-11T17:58:06.224Z,7.6
2023-03-11T17:59:29.678Z,6.8
2023-03-11T18:00:53.127Z,8.1
2023-03-11T18:02:16.571Z,7
2023-03-11T18:03:40.030Z,7.5
2023-03-11T18:05:03.476Z,7.6
2023-03-11T18:06:26.922Z,6.3
2023-03-11T18:07:50.372Z,5
2023-03-11T18:09:13.817Z,4.8
2023-03-11T18:10:37.288Z,4.9
2023-03-11T18:12:00.731Z,4.1
2023-03-11T18:13:24.177Z,4.3
2023-03-11T18:14:47.627Z,3.7
2023-03-11T18:16:10.088Z,3.8
2023-03-11T18:17:33.551Z,3.8
2023-03-11T18:20:20.445Z,3.4
2023-03-11T18:21:43.906Z,2.8
2023-03-11T18:23:07.347Z,3.3
2023-03-11T18:24:30.796Z,3.1
2023-03-11T18:25:54.243Z,3.3
2023-03-11T18:27:17.699Z,3.2
2023-03-11T18:28:41.154Z,2.6
2023-03-11T18:30:04.587Z,2.7
2023-03-11T18:31:28.048Z,2.5
2023-03-11T18:32:51.503Z,2.9
2023-03-11T18:34:13.969Z,3.5
2023-03-11T18:35:37.419Z,3.2
2023-03-11T18:37:00.864Z,3.2
2023-03-11T18:38:24.325Z,3
2023-03-11T18:39:47.766Z,3
2023-03-11T18:41:11.216Z,3
2023-03-11T18:42:34.668Z,2.9
2023-03-11T18:43:58.115Z,3.3
2023-03-11T18:45:21.569Z,3.4
2023-03-11T18:46:45.021Z,3.2
2023-03-11T18:48:08.473Z,3
2023-03-11T18:49:31.920Z,3.5
2023-03-11T18:50:55.366Z,3.3
2023-03-11T18:52:17.848Z,3.2
2023-03-11T18:55:04.754Z,3.2
2023-03-11T18:56:28.189Z,3.4
2023-03-11T18:57:51.655Z,3.8
2023-03-11T18:59:15.095Z,3.4
2023-03-11T19:14:38.403Z,2.3
2023-03-11T19:30:01.709Z,3.5
2023-03-11T19:45:25.028Z,3.6
2023-03-11T20:00:48.328Z,6.1
2023-03-11T20:16:11.658Z,4.4
2023-03-11T20:31:34.967Z,4.8
2023-03-11T20:46:58.280Z,2.2
2023-03-11T21:02:20.605Z,1.8
2023-03-11T21:17:43.911Z,2.1
2023-03-11T21:33:07.229Z,1.7
2023-03-11T21:48:30.533Z,1.2
2023-03-11T22:03:53.848Z,1.1
2023-03-11T22:19:17.152Z,1.4
2023-03-11T22:34:40.473Z,3
2023-03-11T22:50:03.776Z,1.4
2023-03-11T23:05:27.100Z,1
2023-03-11T23:20:50.407Z,1
2023-03-11T23:36:13.717Z,1.3
2023-03-11T23:51:37.027Z,1.2
